sensor_id;sensor_type;location;lat;lon;timestamp;P1;durP1;ratioP1;P2;durP2;ratioP2
21438;SDS011;10880;50.302;18.736;2023-08-07T00:01:34;1.30;;;1.20;;
21438;SDS011;10880;50.302;18.736;2023-08-07T00:04:01;1.40;;;1.30;;
21438;SDS011;10880;50.302;18.736;2023-08-07T00:06:27;1.20;;;1.20;;
21438;SDS011;10880;50.302;18.736;2023-08-07T00:08:54;1.17;;;1.17;;
21438;SDS011;10880;50.302;18.736;2023-08-07T00:11:21;1.20;;;1.20;;
21438;SDS011;10880;50.302;18.736;2023-08-07T00:13:47;1.20;;;1.20;;
21438;SDS011;10880;50.302;18.736;2023-08-07T00:16:14;1.20;;;1.20;;
21438;SDS011;10880;50.302;18.736;2023-08-07T00:18:41;1.20;;;1.20;;
21438;SDS011;10880;50.302;18.736;2023-08-07T00:21:08;1.20;;;1.20;;
21438;SDS011;10880;50.302;18.736;2023-08-07T00:23:35;1.23;;;1.17;;
21438;SDS011;10880;50.302;18.736;2023-08-07T00:26:01;1.27;;;1.27;;
21438;SDS011;10880;50.302;18.736;2023-08-07T00:28:28;1.10;;;1.10;;
21438;SDS011;10880;50.302;18.736;2023-08-07T00:30:55;1.23;;;1.23;;
21438;SDS011;10880;50.302;18.736;2023-08-07T00:33:22;1.20;;;1.20;;
21438;SDS011;10880;50.302;18.736;2023-08-07T00:35:49;1.20;;;1.20;;
21438;SDS011;10880;50.302;18.736;2023-08-07T00:38:15;1.20;;;1.20;;
21438;SDS011;10880;50.302;18.736;2023-08-07T00:40:42;1.57;;;1.20;;
21438;SDS011;10880;50.302;18.736;2023-08-07T00:43:09;1.20;;;1.20;;
21438;SDS011;10880;50.302;18.736;2023-08-07T00:45:41;1.17;;;1.17;;
21438;SDS011;10880;50.302;18.736;2023-08-07T00:48:09;1.20;;;1.20;;
21438;SDS011;10880;50.302;18.736;2023-08-07T00:50:37;1.20;;;1.20;;
21438;SDS011;10880;50.302;18.736;2023-08-07T00:53:06;1.20;;;1.20;;
21438;SDS011;10880;50.302;18.736;2023-08-07T00:55:32;1.30;;;1.20;;
21438;SDS011;10880;50.302;18.736;2023-08-07T00:57:59;4.10;;;1.20;;
21438;SDS011;10880;50.302;18.736;2023-08-07T01:00:27;1.20;;;1.10;;
21438;SDS011;10880;50.302;18.736;2023-08-07T01:02:56;1.20;;;1.20;;
21438;SDS011;10880;50.302;18.736;2023-08-07T01:05:24;1.30;;;1.30;;
21438;SDS011;10880;50.302;18.736;2023-08-07T01:07:53;1.20;;;1.20;;
21438;SDS011;10880;50.302;18.736;2023-08-07T01:10:25;1.20;;;1.20;;
21438;SDS011;10880;50.302;18.736;2023-08-07T01:13:24;1.20;;;1.20;;
21438;SDS011;10880;50.302;18.736;2023-08-07T01:15:59;1.20;;;1.20;;
21438;SDS011;10880;50.302;18.736;2023-08-07T01:18:34;1.20;;;1.20;;
21438;SDS011;10880;50.302;18.736;2023-08-07T01:21:03;1.30;;;1.20;;
21438;SDS011;10880;50.302;18.736;2023-08-07T01:23:30;1.20;;;1.20;;
21438;SDS011;10880;50.302;18.736;2023-08-07T01:25:57;1.20;;;1.20;;
21438;SDS011;10880;50.302;18.736;2023-08-07T01:28:31;1.20;;;1.20;;
21438;SDS011;10880;50.302;18.736;2023-08-07T01:31:02;1.20;;;1.20;;
21438;SDS011;10880;50.302;18.736;2023-08-07T01:33:31;1.30;;;1.30;;
21438;SDS011;10880;50.302;18.736;2023-08-07T01:36:05;1.40;;;1.30;;
21438;SDS011;10880;50.302;18.736;2023-08-07T01:38:34;1.43;;;1.30;;
21438;SDS011;10880;50.302;18.736;2023-08-07T01:41:02;1.50;;;1.40;;
21438;SDS011;10880;50.302;18.736;2023-08-07T01:43:29;1.40;;;1.30;;
21438;SDS011;10880;50.302;18.736;2023-08-07T01:45:56;1.20;;;1.20;;
21438;SDS011;10880;50.302;18.736;2023-08-07T01:48:24;1.30;;;1.30;;
21438;SDS011;10880;50.302;18.736;2023-08-07T01:50:51;1.50;;;1.40;;
21438;SDS011;10880;50.302;18.736;2023-08-07T01:53:17;1.53;;;1.43;;
21438;SDS011;10880;50.302;18.736;2023-08-07T01:55:44;1.30;;;1.30;;
21438;SDS011;10880;50.302;18.736;2023-08-07T01:58:10;1.27;;;1.27;;
21438;SDS011;10880;50.302;18.736;2023-08-07T02:00:38;1.40;;;1.30;;
21438;SDS011;10880;50.302;18.736;2023-08-07T02:03:04;1.30;;;1.30;;
21438;SDS011;10880;50.302;18.736;2023-08-07T02:05:32;1.67;;;1.30;;
21438;SDS011;10880;50.302;18.736;2023-08-07T02:07:59;1.20;;;1.20;;
21438;SDS011;10880;50.302;18.736;2023-08-07T02:10:26;1.27;;;1.27;;
21438;SDS011;10880;50.302;18.736;2023-08-07T02:12:53;1.27;;;1.27;;
21438;SDS011;10880;50.302;18.736;2023-08-07T02:15:20;1.50;;;1.40;;
21438;SDS011;10880;50.302;18.736;2023-08-07T02:17:50;1.70;;;1.60;;
21438;SDS011;10880;50.302;18.736;2023-08-07T02:20:17;1.50;;;1.40;;
21438;SDS011;10880;50.302;18.736;2023-08-07T02:22:44;1.40;;;1.30;;
21438;SDS011;10880;50.302;18.736;2023-08-07T02:25:10;1.40;;;1.30;;
21438;SDS011;10880;50.302;18.736;2023-08-07T02:27:38;1.17;;;1.17;;
21438;SDS011;10880;50.302;18.736;2023-08-07T02:30:05;1.50;;;1.40;;
21438;SDS011;10880;50.302;18.736;2023-08-07T02:32:32;1.30;;;1.30;;
21438;SDS011;10880;50.302;18.736;2023-08-07T02:34:58;1.43;;;1.30;;
21438;SDS011;10880;50.302;18.736;2023-08-07T02:37:25;1.20;;;1.20;;
21438;SDS011;10880;50.302;18.736;2023-08-07T02:39:52;1.30;;;1.30;;
21438;SDS011;10880;50.302;18.736;2023-08-07T02:42:19;1.50;;;1.40;;
21438;SDS011;10880;50.302;18.736;2023-08-07T02:44:46;1.30;;;1.30;;
21438;SDS011;10880;50.302;18.736;2023-08-07T02:47:14;1.40;;;1.40;;
21438;SDS011;10880;50.302;18.736;2023-08-07T02:49:40;1.53;;;1.43;;
21438;SDS011;10880;50.302;18.736;2023-08-07T02:52:07;1.60;;;1.50;;
21438;SDS011;10880;50.302;18.736;2023-08-07T02:54:34;1.60;;;1.50;;
21438;SDS011;10880;50.302;18.736;2023-08-07T02:57:00;1.30;;;1.30;;
21438;SDS011;10880;50.302;18.736;2023-08-07T02:59:27;1.63;;;1.53;;
21438;SDS011;10880;50.302;18.736;2023-08-07T03:01:54;1.60;;;1.50;;
21438;SDS011;10880;50.302;18.736;2023-08-07T03:04:21;1.50;;;1.40;;
21438;SDS011;10880;50.302;18.736;2023-08-07T03:06:47;1.60;;;1.50;;
21438;SDS011;10880;50.302;18.736;2023-08-07T03:09:14;1.50;;;1.40;;
21438;SDS011;10880;50.302;18.736;2023-08-07T03:11:41;1.33;;;1.33;;
21438;SDS011;10880;50.302;18.736;2023-08-07T03:14:07;1.53;;;1.43;;
21438;SDS011;10880;50.302;18.736;2023-08-07T03:16:34;1.50;;;1.40;;
21438;SDS011;10880;50.302;18.736;2023-08-07T03:19:01;1.60;;;1.50;;
21438;SDS011;10880;50.302;18.736;2023-08-07T03:21:27;1.30;;;1.30;;
21438;SDS011;10880;50.302;18.736;2023-08-07T03:23:54;1.50;;;1.40;;
21438;SDS011;10880;50.302;18.736;2023-08-07T03:26:21;1.30;;;1.30;;
21438;SDS011;10880;50.302;18.736;2023-08-07T03:28:48;1.40;;;1.40;;
21438;SDS011;10880;50.302;18.736;2023-08-07T03:31:15;1.30;;;1.30;;
21438;SDS011;10880;50.302;18.736;2023-08-07T03:33:42;1.50;;;1.40;;
21438;SDS011;10880;50.302;18.736;2023-08-07T03:36:09;1.30;;;1.30;;
21438;SDS011;10880;50.302;18.736;2023-08-07T03:38:35;1.40;;;1.30;;
21438;SDS011;10880;50.302;18.736;2023-08-07T03:41:03;1.20;;;1.20;;
21438;SDS011;10880;50.302;18.736;2023-08-07T03:43:31;1.30;;;1.30;;
21438;SDS011;10880;50.302;18.736;2023-08-07T03:45:58;1.30;;;1.30;;
21438;SDS011;10880;50.302;18.736;2023-08-07T03:48:25;1.30;;;1.30;;
21438;SDS011;10880;50.302;18.736;2023-08-07T03:50:51;1.57;;;1.47;;
21438;SDS011;10880;50.302;18.736;2023-08-07T03:53:18;1.50;;;1.40;;
21438;SDS011;10880;50.302;18.736;2023-08-07T03:55:50;1.30;;;1.30;;
21438;SDS011;10880;50.302;18.736;2023-08-07T03:58:19;1.50;;;1.40;;
21438;SDS011;10880;50.302;18.736;2023-08-07T04:00:46;1.40;;;1.40;;
21438;SDS011;10880;50.302;18.736;2023-08-07T04:03:13;1.27;;;1.20;;
21438;SDS011;10880;50.302;18.736;2023-08-07T04:05:40;1.33;;;1.30;;
21438;SDS011;10880;50.302;18.736;2023-08-07T04:08:06;1.50;;;1.40;;
21438;SDS011;10880;50.302;18.736;2023-08-07T04:10:33;1.30;;;1.30;;
21438;SDS011;10880;50.302;18.736;2023-08-07T04:13:00;1.20;;;1.20;;
21438;SDS011;10880;50.302;18.736;2023-08-07T04:15:27;1.20;;;1.20;;
21438;SDS011;10880;50.302;18.736;2023-08-07T04:17:54;1.20;;;1.20;;
21438;SDS011;10880;50.302;18.736;2023-08-07T04:20:21;1.40;;;1.30;;
21438;SDS011;10880;50.302;18.736;2023-08-07T04:22:47;1.40;;;1.30;;
21438;SDS011;10880;50.302;18.736;2023-08-07T04:25:14;1.40;;;1.30;;
21438;SDS011;10880;50.302;18.736;2023-08-07T04:27:40;1.20;;;1.20;;
21438;SDS011;10880;50.302;18.736;2023-08-07T04:30:07;1.30;;;1.30;;
21438;SDS011;10880;50.302;18.736;2023-08-07T04:32:34;1.20;;;1.20;;
21438;SDS011;10880;50.302;18.736;2023-08-07T04:35:01;1.10;;;1.10;;
21438;SDS011;10880;50.302;18.736;2023-08-07T04:37:28;1.10;;;1.10;;
21438;SDS011;10880;50.302;18.736;2023-08-07T04:39:56;1.10;;;1.10;;
21438;SDS011;10880;50.302;18.736;2023-08-07T04:42:22;1.00;;;1.00;;
21438;SDS011;10880;50.302;18.736;2023-08-07T04:44:49;1.27;;;1.27;;
21438;SDS011;10880;50.302;18.736;2023-08-07T04:47:15;1.30;;;1.20;;
21438;SDS011;10880;50.302;18.736;2023-08-07T04:49:42;1.27;;;1.27;;
21438;SDS011;10880;50.302;18.736;2023-08-07T04:52:09;1.10;;;1.10;;
21438;SDS011;10880;50.302;18.736;2023-08-07T04:54:35;1.10;;;1.10;;
21438;SDS011;10880;50.302;18.736;2023-08-07T04:57:02;1.20;;;1.20;;
21438;SDS011;10880;50.302;18.736;2023-08-07T04:59:29;1.00;;;1.00;;
21438;SDS011;10880;50.302;18.736;2023-08-07T05:01:56;1.10;;;1.10;;
21438;SDS011;10880;50.302;18.736;2023-08-07T05:04:23;1.10;;;1.10;;
21438;SDS011;10880;50.302;18.736;2023-08-07T05:06:50;1.13;;;1.10;;
21438;SDS011;10880;50.302;18.736;2023-08-07T05:09:16;1.10;;;1.10;;
21438;SDS011;10880;50.302;18.736;2023-08-07T05:11:43;1.10;;;1.10;;
21438;SDS011;10880;50.302;18.736;2023-08-07T05:14:10;1.07;;;1.07;;
21438;SDS011;10880;50.302;18.736;2023-08-07T05:16:37;1.40;;;1.30;;
21438;SDS011;10880;50.302;18.736;2023-08-07T05:19:03;1.10;;;1.10;;
21438;SDS011;10880;50.302;18.736;2023-08-07T05:21:30;1.10;;;1.10;;
21438;SDS011;10880;50.302;18.736;2023-08-07T05:23:57;1.10;;;1.10;;
21438;SDS011;10880;50.302;18.736;2023-08-07T05:26:23;1.83;;;1.30;;
21438;SDS011;10880;50.302;18.736;2023-08-07T05:28:50;1.10;;;1.10;;
21438;SDS011;10880;50.302;18.736;2023-08-07T05:31:17;1.00;;;1.00;;
21438;SDS011;10880;50.302;18.736;2023-08-07T05:33:43;1.20;;;1.20;;
21438;SDS011;10880;50.302;18.736;2023-08-07T05:36:10;1.10;;;1.10;;
21438;SDS011;10880;50.302;18.736;2023-08-07T05:38:37;1.03;;;1.03;;
21438;SDS011;10880;50.302;18.736;2023-08-07T05:41:04;0.90;;;0.90;;
21438;SDS011;10880;50.302;18.736;2023-08-07T05:43:33;1.00;;;1.00;;
21438;SDS011;10880;50.302;18.736;2023-08-07T05:46:00;1.00;;;1.00;;
21438;SDS011;10880;50.302;18.736;2023-08-07T05:48:26;1.10;;;1.10;;
21438;SDS011;10880;50.302;18.736;2023-08-07T05:50:53;1.13;;;1.13;;
21438;SDS011;10880;50.302;18.736;2023-08-07T05:53:20;1.00;;;1.00;;
21438;SDS011;10880;50.302;18.736;2023-08-07T05:55:46;1.00;;;1.00;;
21438;SDS011;10880;50.302;18.736;2023-08-07T05:58:14;0.90;;;0.90;;
21438;SDS011;10880;50.302;18.736;2023-08-07T06:00:40;1.03;;;1.03;;
21438;SDS011;10880;50.302;18.736;2023-08-07T06:03:09;0.90;;;0.90;;
21438;SDS011;10880;50.302;18.736;2023-08-07T06:05:35;1.00;;;1.00;;
21438;SDS011;10880;50.302;18.736;2023-08-07T06:08:02;1.03;;;1.03;;
21438;SDS011;10880;50.302;18.736;2023-08-07T06:10:29;0.90;;;0.90;;
21438;SDS011;10880;50.302;18.736;2023-08-07T06:12:55;1.00;;;1.00;;
21438;SDS011;10880;50.302;18.736;2023-08-07T06:15:22;1.00;;;1.00;;
21438;SDS011;10880;50.302;18.736;2023-08-07T06:17:49;0.90;;;0.90;;
21438;SDS011;10880;50.302;18.736;2023-08-07T06:20:20;1.17;;;0.90;;
21438;SDS011;10880;50.302;18.736;2023-08-07T06:22:47;0.90;;;0.90;;
21438;SDS011;10880;50.302;18.736;2023-08-07T06:25:13;1.00;;;1.00;;
21438;SDS011;10880;50.302;18.736;2023-08-07T06:27:40;0.90;;;0.90;;
21438;SDS011;10880;50.302;18.736;2023-08-07T06:30:07;1.03;;;1.03;;
21438;SDS011;10880;50.302;18.736;2023-08-07T06:32:34;1.27;;;1.10;;
21438;SDS011;10880;50.302;18.736;2023-08-07T06:35:02;1.10;;;1.10;;
21438;SDS011;10880;50.302;18.736;2023-08-07T06:37:30;1.00;;;1.00;;
21438;SDS011;10880;50.302;18.736;2023-08-07T06:39:57;1.00;;;1.00;;
21438;SDS011;10880;50.302;18.736;2023-08-07T06:42:26;0.90;;;0.90;;
21438;SDS011;10880;50.302;18.736;2023-08-07T06:44:53;1.00;;;1.00;;
21438;SDS011;10880;50.302;18.736;2023-08-07T06:47:20;1.00;;;1.00;;
21438;SDS011;10880;50.302;18.736;2023-08-07T06:49:47;0.97;;;0.97;;
21438;SDS011;10880;50.302;18.736;2023-08-07T06:52:17;1.00;;;1.00;;
21438;SDS011;10880;50.302;18.736;2023-08-07T06:54:44;0.97;;;0.97;;
21438;SDS011;10880;50.302;18.736;2023-08-07T06:57:14;1.20;;;1.10;;
21438;SDS011;10880;50.302;18.736;2023-08-07T06:59:41;1.00;;;1.00;;
21438;SDS011;10880;50.302;18.736;2023-08-07T07:02:07;1.00;;;1.00;;
21438;SDS011;10880;50.302;18.736;2023-08-07T07:04:34;0.90;;;0.90;;
21438;SDS011;10880;50.302;18.736;2023-08-07T07:07:02;1.07;;;1.07;;
21438;SDS011;10880;50.302;18.736;2023-08-07T07:09:29;0.90;;;0.90;;
21438;SDS011;10880;50.302;18.736;2023-08-07T07:11:56;1.00;;;1.00;;
21438;SDS011;10880;50.302;18.736;2023-08-07T07:14:23;1.10;;;1.10;;
21438;SDS011;10880;50.302;18.736;2023-08-07T07:16:54;1.10;;;1.10;;
21438;SDS011;10880;50.302;18.736;2023-08-07T07:19:27;1.00;;;1.00;;
21438;SDS011;10880;50.302;18.736;2023-08-07T07:21:54;1.20;;;1.20;;
21438;SDS011;10880;50.302;18.736;2023-08-07T07:24:21;1.00;;;1.00;;
21438;SDS011;10880;50.302;18.736;2023-08-07T07:26:56;1.80;;;1.00;;
21438;SDS011;10880;50.302;18.736;2023-08-07T07:29:22;1.10;;;1.00;;
21438;SDS011;10880;50.302;18.736;2023-08-07T07:31:49;1.07;;;1.07;;
21438;SDS011;10880;50.302;18.736;2023-08-07T07:34:18;1.03;;;0.93;;
21438;SDS011;10880;50.302;18.736;2023-08-07T07:36:44;1.00;;;1.00;;
21438;SDS011;10880;50.302;18.736;2023-08-07T07:39:11;0.97;;;0.97;;
21438;SDS011;10880;50.302;18.736;2023-08-07T07:41:37;0.97;;;0.97;;
21438;SDS011;10880;50.302;18.736;2023-08-07T07:44:04;0.90;;;0.90;;
21438;SDS011;10880;50.302;18.736;2023-08-07T07:46:31;1.00;;;1.00;;
21438;SDS011;10880;50.302;18.736;2023-08-07T07:48:58;0.90;;;0.90;;
21438;SDS011;10880;50.302;18.736;2023-08-07T07:51:26;1.00;;;1.00;;
21438;SDS011;10880;50.302;18.736;2023-08-07T07:53:54;1.10;;;1.00;;
21438;SDS011;10880;50.302;18.736;2023-08-07T07:56:21;1.00;;;1.00;;
21438;SDS011;10880;50.302;18.736;2023-08-07T07:58:49;1.00;;;1.00;;
21438;SDS011;10880;50.302;18.736;2023-08-07T08:01:15;0.90;;;0.90;;
21438;SDS011;10880;50.302;18.736;2023-08-07T08:03:43;1.00;;;1.00;;
21438;SDS011;10880;50.302;18.736;2023-08-07T08:06:11;1.00;;;1.00;;
21438;SDS011;10880;50.302;18.736;2023-08-07T08:08:39;0.90;;;0.90;;
21438;SDS011;10880;50.302;18.736;2023-08-07T08:11:06;1.00;;;1.00;;
21438;SDS011;10880;50.302;18.736;2023-08-07T08:13:33;1.00;;;1.00;;
21438;SDS011;10880;50.302;18.736;2023-08-07T08:16:04;1.00;;;1.00;;
21438;SDS011;10880;50.302;18.736;2023-08-07T08:18:31;1.00;;;1.00;;
21438;SDS011;10880;50.302;18.736;2023-08-07T08:20:59;1.00;;;1.00;;
21438;SDS011;10880;50.302;18.736;2023-08-07T08:23:26;1.20;;;1.10;;
21438;SDS011;10880;50.302;18.736;2023-08-07T08:25:54;1.00;;;1.00;;
21438;SDS011;10880;50.302;18.736;2023-08-07T08:28:20;1.10;;;1.10;;
21438;SDS011;10880;50.302;18.736;2023-08-07T08:30:47;1.10;;;1.10;;
21438;SDS011;10880;50.302;18.736;2023-08-07T08:33:14;1.30;;;1.20;;
21438;SDS011;10880;50.302;18.736;2023-08-07T08:35:41;1.00;;;1.00;;
21438;SDS011;10880;50.302;18.736;2023-08-07T08:38:08;1.00;;;1.00;;
21438;SDS011;10880;50.302;18.736;2023-08-07T08:40:35;1.00;;;1.00;;
21438;SDS011;10880;50.302;18.736;2023-08-07T08:43:04;1.00;;;1.00;;
21438;SDS011;10880;50.302;18.736;2023-08-07T08:45:32;1.00;;;1.00;;
21438;SDS011;10880;50.302;18.736;2023-08-07T08:48:00;1.10;;;1.10;;
21438;SDS011;10880;50.302;18.736;2023-08-07T08:50:29;1.00;;;1.00;;
21438;SDS011;10880;50.302;18.736;2023-08-07T08:52:56;1.00;;;1.00;;
21438;SDS011;10880;50.302;18.736;2023-08-07T08:55:25;1.20;;;1.10;;
21438;SDS011;10880;50.302;18.736;2023-08-07T08:57:52;1.10;;;1.10;;
21438;SDS011;10880;50.302;18.736;2023-08-07T09:00:19;1.10;;;1.10;;
21438;SDS011;10880;50.302;18.736;2023-08-07T09:02:47;0.90;;;0.90;;
21438;SDS011;10880;50.302;18.736;2023-08-07T09:05:15;0.93;;;0.93;;
21438;SDS011;10880;50.302;18.736;2023-08-07T09:07:46;1.00;;;1.00;;
21438;SDS011;10880;50.302;18.736;2023-08-07T09:10:14;1.00;;;1.00;;
21438;SDS011;10880;50.302;18.736;2023-08-07T09:12:57;1.00;;;1.00;;
21438;SDS011;10880;50.302;18.736;2023-08-07T09:15:29;1.00;;;1.00;;
21438;SDS011;10880;50.302;18.736;2023-08-07T09:17:56;1.10;;;1.10;;
21438;SDS011;10880;50.302;18.736;2023-08-07T09:20:24;1.00;;;1.00;;
21438;SDS011;10880;50.302;18.736;2023-08-07T09:22:51;1.00;;;1.00;;
21438;SDS011;10880;50.302;18.736;2023-08-07T09:25:27;1.00;;;1.00;;
21438;SDS011;10880;50.302;18.736;2023-08-07T09:27:54;1.00;;;1.00;;
21438;SDS011;10880;50.302;18.736;2023-08-07T09:30:25;0.90;;;0.90;;
21438;SDS011;10880;50.302;18.736;2023-08-07T09:32:56;1.00;;;1.00;;
21438;SDS011;10880;50.302;18.736;2023-08-07T09:35:22;0.90;;;0.90;;
21438;SDS011;10880;50.302;18.736;2023-08-07T09:37:49;1.07;;;1.07;;
21438;SDS011;10880;50.302;18.736;2023-08-07T09:40:16;1.00;;;1.00;;
21438;SDS011;10880;50.302;18.736;2023-08-07T09:42:43;1.00;;;1.00;;
21438;SDS011;10880;50.302;18.736;2023-08-07T09:45:26;1.00;;;1.00;;
21438;SDS011;10880;50.302;18.736;2023-08-07T09:47:57;0.97;;;0.97;;
21438;SDS011;10880;50.302;18.736;2023-08-07T09:50:32;1.00;;;1.00;;
21438;SDS011;10880;50.302;18.736;2023-08-07T09:52:59;1.07;;;1.07;;
21438;SDS011;10880;50.302;18.736;2023-08-07T09:55:26;1.00;;;1.00;;
21438;SDS011;10880;50.302;18.736;2023-08-07T09:57:53;1.00;;;1.00;;
21438;SDS011;10880;50.302;18.736;2023-08-07T10:00:19;1.20;;;1.20;;
21438;SDS011;10880;50.302;18.736;2023-08-07T10:02:47;1.10;;;1.10;;
21438;SDS011;10880;50.302;18.736;2023-08-07T10:05:15;1.03;;;1.03;;
21438;SDS011;10880;50.302;18.736;2023-08-07T10:07:42;1.20;;;1.20;;
21438;SDS011;10880;50.302;18.736;2023-08-07T10:10:09;1.20;;;1.10;;
21438;SDS011;10880;50.302;18.736;2023-08-07T10:12:39;1.10;;;1.10;;
21438;SDS011;10880;50.302;18.736;2023-08-07T10:15:06;1.20;;;1.20;;
21438;SDS011;10880;50.302;18.736;2023-08-07T10:17:32;1.10;;;1.10;;
21438;SDS011;10880;50.302;18.736;2023-08-07T10:19:59;1.00;;;1.00;;
21438;SDS011;10880;50.302;18.736;2023-08-07T10:22:27;1.10;;;1.10;;
21438;SDS011;10880;50.302;18.736;2023-08-07T10:24:57;1.10;;;1.10;;
21438;SDS011;10880;50.302;18.736;2023-08-07T10:27:27;1.10;;;1.10;;
21438;SDS011;10880;50.302;18.736;2023-08-07T10:29:57;1.27;;;1.27;;
21438;SDS011;10880;50.302;18.736;2023-08-07T10:32:26;1.20;;;1.20;;
21438;SDS011;10880;50.302;18.736;2023-08-07T10:34:53;1.20;;;1.20;;
21438;SDS011;10880;50.302;18.736;2023-08-07T10:37:40;1.20;;;1.20;;
21438;SDS011;10880;50.302;18.736;2023-08-07T10:40:11;1.13;;;1.13;;
21438;SDS011;10880;50.302;18.736;2023-08-07T10:45:20;1.20;;;1.20;;
21438;SDS011;10880;50.302;18.736;2023-08-07T10:50:36;1.30;;;1.20;;
21438;SDS011;10880;50.302;18.736;2023-08-07T10:53:21;1.23;;;1.13;;
21438;SDS011;10880;50.302;18.736;2023-08-07T10:56:08;1.07;;;1.07;;
21438;SDS011;10880;50.302;18.736;2023-08-07T10:59:10;1.13;;;1.13;;
21438;SDS011;10880;50.302;18.736;2023-08-07T11:06:34;1.47;;;1.20;;
21438;SDS011;10880;50.302;18.736;2023-08-07T11:09:03;1.10;;;1.10;;
21438;SDS011;10880;50.302;18.736;2023-08-07T11:11:40;1.10;;;1.10;;
21438;SDS011;10880;50.302;18.736;2023-08-07T11:14:12;1.10;;;1.10;;
21438;SDS011;10880;50.302;18.736;2023-08-07T11:16:43;1.20;;;1.20;;
21438;SDS011;10880;50.302;18.736;2023-08-07T11:19:11;1.10;;;1.10;;
21438;SDS011;10880;50.302;18.736;2023-08-07T11:21:38;1.20;;;1.20;;
21438;SDS011;10880;50.302;18.736;2023-08-07T11:24:05;1.30;;;1.20;;
21438;SDS011;10880;50.302;18.736;2023-08-07T11:26:32;1.20;;;1.20;;
21438;SDS011;10880;50.302;18.736;2023-08-07T11:28:58;1.10;;;1.10;;
21438;SDS011;10880;50.302;18.736;2023-08-07T11:31:25;1.30;;;1.20;;
21438;SDS011;10880;50.302;18.736;2023-08-07T11:33:55;1.20;;;1.20;;
21438;SDS011;10880;50.302;18.736;2023-08-07T11:36:28;1.33;;;1.27;;
21438;SDS011;10880;50.302;18.736;2023-08-07T11:38:55;1.33;;;1.23;;
21438;SDS011;10880;50.302;18.736;2023-08-07T11:41:21;1.40;;;1.30;;
21438;SDS011;10880;50.302;18.736;2023-08-07T11:43:48;1.13;;;1.13;;
21438;SDS011;10880;50.302;18.736;2023-08-07T11:46:15;1.20;;;1.20;;
21438;SDS011;10880;50.302;18.736;2023-08-07T11:48:42;1.20;;;1.20;;
21438;SDS011;10880;50.302;18.736;2023-08-07T11:51:10;1.33;;;1.30;;
21438;SDS011;10880;50.302;18.736;2023-08-07T11:53:37;1.40;;;1.30;;
21438;SDS011;10880;50.302;18.736;2023-08-07T11:56:09;1.23;;;1.10;;
21438;SDS011;10880;50.302;18.736;2023-08-07T11:58:43;1.20;;;1.10;;
21438;SDS011;10880;50.302;18.736;2023-08-07T12:01:20;1.20;;;1.20;;
21438;SDS011;10880;50.302;18.736;2023-08-07T12:03:56;1.07;;;1.07;;
21438;SDS011;10880;50.302;18.736;2023-08-07T12:06:31;1.00;;;1.00;;
21438;SDS011;10880;50.302;18.736;2023-08-07T12:08:59;1.20;;;1.20;;
21438;SDS011;10880;50.302;18.736;2023-08-07T12:11:25;1.40;;;1.30;;
21438;SDS011;10880;50.302;18.736;2023-08-07T12:13:52;1.00;;;1.00;;
21438;SDS011;10880;50.302;18.736;2023-08-07T12:16:20;1.10;;;1.10;;
21438;SDS011;10880;50.302;18.736;2023-08-07T12:18:48;1.37;;;1.30;;
21438;SDS011;10880;50.302;18.736;2023-08-07T12:21:19;1.20;;;1.10;;
21438;SDS011;10880;50.302;18.736;2023-08-07T12:23:49;1.07;;;1.07;;
21438;SDS011;10880;50.302;18.736;2023-08-07T12:26:17;1.30;;;1.20;;
21438;SDS011;10880;50.302;18.736;2023-08-07T12:28:44;1.40;;;1.30;;
21438;SDS011;10880;50.302;18.736;2023-08-07T12:31:10;1.20;;;1.20;;
21438;SDS011;10880;50.302;18.736;2023-08-07T12:33:37;1.17;;;1.13;;
21438;SDS011;10880;50.302;18.736;2023-08-07T12:36:05;1.10;;;1.10;;
21438;SDS011;10880;50.302;18.736;2023-08-07T12:38:31;1.20;;;1.20;;
21438;SDS011;10880;50.302;18.736;2023-08-07T12:40:58;1.47;;;1.37;;
21438;SDS011;10880;50.302;18.736;2023-08-07T12:43:25;1.20;;;1.20;;
21438;SDS011;10880;50.302;18.736;2023-08-07T12:45:51;1.53;;;1.30;;
21438;SDS011;10880;50.302;18.736;2023-08-07T12:48:18;1.10;;;1.10;;
21438;SDS011;10880;50.302;18.736;2023-08-07T12:50:45;1.27;;;1.20;;
21438;SDS011;10880;50.302;18.736;2023-08-07T12:53:12;1.10;;;1.10;;
21438;SDS011;10880;50.302;18.736;2023-08-07T12:55:38;1.40;;;1.30;;
21438;SDS011;10880;50.302;18.736;2023-08-07T12:58:06;1.23;;;1.23;;
21438;SDS011;10880;50.302;18.736;2023-08-07T13:00:33;1.40;;;1.30;;
21438;SDS011;10880;50.302;18.736;2023-08-07T13:03:00;1.40;;;1.30;;
21438;SDS011;10880;50.302;18.736;2023-08-07T13:05:28;1.30;;;1.20;;
21438;SDS011;10880;50.302;18.736;2023-08-07T13:07:58;1.40;;;1.30;;
21438;SDS011;10880;50.302;18.736;2023-08-07T13:10:24;1.40;;;1.30;;
21438;SDS011;10880;50.302;18.736;2023-08-07T13:12:54;1.10;;;1.10;;
21438;SDS011;10880;50.302;18.736;2023-08-07T13:15:20;1.27;;;1.17;;
21438;SDS011;10880;50.302;18.736;2023-08-07T13:17:47;1.30;;;1.30;;
21438;SDS011;10880;50.302;18.736;2023-08-07T13:20:15;1.20;;;1.20;;
21438;SDS011;10880;50.302;18.736;2023-08-07T13:22:44;1.20;;;1.20;;
21438;SDS011;10880;50.302;18.736;2023-08-07T13:25:11;1.10;;;1.10;;
21438;SDS011;10880;50.302;18.736;2023-08-07T13:27:39;1.20;;;1.20;;
21438;SDS011;10880;50.302;18.736;2023-08-07T13:30:08;1.20;;;1.20;;
21438;SDS011;10880;50.302;18.736;2023-08-07T13:32:35;1.40;;;1.30;;
21438;SDS011;10880;50.302;18.736;2023-08-07T13:35:02;1.30;;;1.30;;
21438;SDS011;10880;50.302;18.736;2023-08-07T13:37:28;1.00;;;1.00;;
21438;SDS011;10880;50.302;18.736;2023-08-07T13:39:56;1.03;;;1.03;;
21438;SDS011;10880;50.302;18.736;2023-08-07T13:42:23;1.10;;;1.10;;
21438;SDS011;10880;50.302;18.736;2023-08-07T13:44:51;1.10;;;1.10;;
21438;SDS011;10880;50.302;18.736;2023-08-07T13:47:20;1.20;;;1.20;;
21438;SDS011;10880;50.302;18.736;2023-08-07T13:49:47;1.10;;;1.10;;
21438;SDS011;10880;50.302;18.736;2023-08-07T13:52:15;1.40;;;1.30;;
21438;SDS011;10880;50.302;18.736;2023-08-07T13:54:45;1.10;;;1.10;;
21438;SDS011;10880;50.302;18.736;2023-08-07T13:57:14;1.30;;;1.23;;
21438;SDS011;10880;50.302;18.736;2023-08-07T13:59:41;1.40;;;1.30;;
21438;SDS011;10880;50.302;18.736;2023-08-07T14:02:08;1.60;;;1.50;;
21438;SDS011;10880;50.302;18.736;2023-08-07T14:04:36;1.70;;;1.60;;
21438;SDS011;10880;50.302;18.736;2023-08-07T14:07:03;1.63;;;1.53;;
21438;SDS011;10880;50.302;18.736;2023-08-07T14:09:29;1.57;;;1.47;;
21438;SDS011;10880;50.302;18.736;2023-08-07T14:12:00;1.30;;;1.20;;
21438;SDS011;10880;50.302;18.736;2023-08-07T14:14:27;1.10;;;1.10;;
21438;SDS011;10880;50.302;18.736;2023-08-07T14:16:54;1.30;;;1.20;;
21438;SDS011;10880;50.302;18.736;2023-08-07T14:19:26;1.33;;;1.20;;
21438;SDS011;10880;50.302;18.736;2023-08-07T14:21:56;1.20;;;1.20;;
21438;SDS011;10880;50.302;18.736;2023-08-07T14:24:22;1.20;;;1.20;;
21438;SDS011;10880;50.302;18.736;2023-08-07T14:26:50;1.17;;;1.17;;
21438;SDS011;10880;50.302;18.736;2023-08-07T14:29:18;1.30;;;1.30;;
21438;SDS011;10880;50.302;18.736;2023-08-07T14:31:45;1.40;;;1.30;;
21438;SDS011;10880;50.302;18.736;2023-08-07T14:34:12;1.70;;;1.60;;
21438;SDS011;10880;50.302;18.736;2023-08-07T14:36:38;1.40;;;1.30;;
21438;SDS011;10880;50.302;18.736;2023-08-07T14:39:06;1.70;;;1.60;;
21438;SDS011;10880;50.302;18.736;2023-08-07T14:41:33;1.40;;;1.30;;
21438;SDS011;10880;50.302;18.736;2023-08-07T14:44:07;1.40;;;1.30;;
21438;SDS011;10880;50.302;18.736;2023-08-07T14:46:33;1.23;;;1.20;;
21438;SDS011;10880;50.302;18.736;2023-08-07T14:49:00;1.40;;;1.30;;